Time;durP1;ratioP1;P1;durP2;ratioP2;P2;SDS_P1;SDS_P2;PMS_P1;PMS_P2;Temp;Humidity;BMP_temperature;BMP_pressure;BME280_temperature;BME280_humidity;BME280_pressure;Samples;Min_cycle;Max_cycle;Signal;HPM_P1;HPM_P2
2022/10/28 00:02:26;;;;;;;64.20;32.10;;;;;;;9.70;100.00;99757.58;215018;1309;25353;-71
2022/10/28 00:07:28;;;;;;;69.80;33.20;;;;;;;9.71;100.00;99750.86;214797;1309;24253;-71
2022/10/28 00:12:34;;;;;;;63.20;32.30;;;;;;;9.72;100.00;99753.48;214903;1309;24497;-71
2022/10/28 00:17:36;;;;;;;51.70;27.10;;;;;;;9.71;100.00;99749.09;214893;1300;22482;-71
2022/10/28 00:22:38;;;;;;;50.60;26.60;;;;;;;9.73;100.00;99748.98;214881;1306;23006;-71
2022/10/28 00:27:40;;;;;;;40.20;21.80;;;;;;;9.75;100.00;99742.33;214919;1309;24309;-71
2022/10/28 00:32:42;;;;;;;47.20;27.20;;;;;;;9.75;100.00;99739.11;214576;1306;24748;-71
2022/10/28 00:37:43;;;;;;;48.00;27.70;;;;;;;9.73;100.00;99736.05;214635;1276;25297;-72
2022/10/28 00:42:46;;;;;;;52.60;27.90;;;;;;;9.74;100.00;99731.40;214809;1309;22472;-71
2022/10/28 00:48:01;;;;;;;50.60;27.00;;;;;;;9.72;100.00;99726.46;214739;1309;22485;-71
2022/10/28 00:53:24;;;;;;;51.10;26.20;;;;;;;9.72;100.00;99719.02;214639;1309;22636;-71
2022/10/28 00:58:27;;;;;;;44.30;24.10;;;;;;;9.72;100.00;99718.43;214674;1311;24341;-71
2022/10/28 01:03:28;;;;;;;50.10;26.20;;;;;;;9.74;100.00;99717.96;214683;1309;22530;-72
2022/10/28 01:08:31;;;;;;;46.80;23.60;;;;;;;9.73;100.00;99717.91;214774;1287;22479;-71
2022/10/28 01:13:54;;;;;;;47.40;25.10;;;;;;;9.71;100.00;99713.83;214970;1309;23246;-72
2022/10/28 01:19:14;;;;;;;42.40;24.40;;;;;;;9.70;100.00;99710.61;214968;1309;23733;-72
2022/10/28 01:24:54;;;;;;;37.40;21.90;;;;;;;9.72;100.00;99712.43;214648;1309;22906;-71
2022/10/28 01:30:09;;;;;;;40.60;22.30;;;;;;;9.70;100.00;99711.52;214672;1309;22448;-72
2022/10/28 01:35:46;;;;;;;47.00;24.10;;;;;;;9.66;100.00;99705.61;214786;1309;24719;-71
2022/10/28 01:40:57;;;;;;;44.80;23.10;;;;;;;9.60;100.00;99696.53;214683;1307;22552;-72
2022/10/28 01:46:21;;;;;;;34.00;19.80;;;;;;;9.57;100.00;99692.71;214635;1310;25504;-71
2022/10/28 01:51:42;;;;;;;34.60;19.90;;;;;;;9.56;100.00;99692.34;214577;1309;22609;-71
2022/10/28 01:56:46;;;;;;;38.40;20.80;;;;;;;9.56;100.00;99696.08;214828;1308;22940;-71
2022/10/28 02:01:48;;;;;;;37.30;20.80;;;;;;;9.57;100.00;99698.88;215111;1309;24009;-71
2022/10/28 02:06:53;;;;;;;34.50;19.50;;;;;;;9.59;100.00;99693.26;214948;1309;101471;-71
2022/10/28 02:12:01;;;;;;;39.70;21.10;;;;;;;9.57;100.00;99687.27;214795;1309;25382;-70
2022/10/28 02:17:05;;;;;;;36.20;21.10;;;;;;;9.54;100.00;99682.85;214764;1309;23748;-72
2022/10/28 02:22:10;;;;;;;43.80;24.00;;;;;;;9.53;100.00;99681.23;214697;1309;22471;-72
2022/10/28 02:27:20;;;;;;;42.70;23.80;;;;;;;9.50;100.00;99678.88;214513;1304;22665;-70
2022/10/28 02:32:26;;;;;;;43.00;23.20;;;;;;;9.45;100.00;99679.11;214680;1309;22491;-72
2022/10/28 02:37:33;;;;;;;48.30;24.30;;;;;;;9.41;100.00;99673.38;214755;1309;24358;-72
2022/10/28 02:42:45;;;;;;;44.00;22.80;;;;;;;9.37;100.00;99672.76;214912;1294;22422;-71
2022/10/28 02:47:53;;;;;;;37.50;20.00;;;;;;;9.34;100.00;99667.94;214545;1312;25378;-71
2022/10/28 02:52:58;;;;;;;37.50;20.90;;;;;;;9.32;100.00;99672.98;214672;1312;22487;-72
2022/10/28 02:58:00;;;;;;;39.80;20.50;;;;;;;9.29;100.00;99660.25;214501;1312;22471;-72
2022/10/28 03:03:03;;;;;;;28.50;16.70;;;;;;;9.26;100.00;99655.79;214507;1312;22550;-71
2022/10/28 03:08:04;;;;;;;35.50;20.20;;;;;;;9.26;100.00;99646.64;214634;1312;23750;-72
2022/10/28 03:13:06;;;;;;;31.40;17.70;;;;;;;9.27;100.00;99643.00;214448;1293;24458;-72
2022/10/28 03:18:08;;;;;;;36.80;20.80;;;;;;;9.27;100.00;99642.05;214442;1312;23399;-71
2022/10/28 03:23:10;;;;;;;31.80;18.90;;;;;;;9.25;100.00;99638.99;214772;1302;22477;-71
2022/10/28 03:28:11;;;;;;;33.10;19.30;;;;;;;9.20;100.00;99636.88;214628;1309;22585;-72
2022/10/28 03:33:14;;;;;;;34.00;18.50;;;;;;;9.16;100.00;99635.71;214580;1310;22544;-72
2022/10/28 03:38:16;;;;;;;27.60;15.90;;;;;;;9.13;100.00;99631.75;214625;1311;22481;-70
2022/10/28 03:43:17;;;;;;;25.60;15.90;;;;;;;9.13;100.00;99638.75;214550;1310;22629;-71
2022/10/28 03:48:19;;;;;;;23.70;15.60;;;;;;;9.14;100.00;99634.48;214987;1309;24305;-71
2022/10/28 03:53:21;;;;;;;25.90;15.90;;;;;;;9.14;100.00;99635.45;214690;1310;22505;-72
2022/10/28 03:58:29;;;;;;;27.80;16.70;;;;;;;9.12;100.00;99633.67;214601;1310;22640;-71
2022/10/28 04:03:31;;;;;;;35.90;19.70;;;;;;;9.12;100.00;99629.61;214549;1295;22477;-72
2022/10/28 04:08:33;;;;;;;28.80;17.00;;;;;;;9.13;100.00;99622.45;214717;1310;24443;-71
2022/10/28 04:13:35;;;;;;;29.10;17.10;;;;;;;9.17;100.00;99617.55;214919;1310;23051;-71
2022/10/28 04:18:37;;;;;;;31.00;17.30;;;;;;;9.21;100.00;99623.90;214779;1307;24394;-72
2022/10/28 04:23:39;;;;;;;27.30;16.50;;;;;;;9.22;100.00;99628.66;214972;1285;22637;-71
2022/10/28 04:28:40;;;;;;;27.60;16.80;;;;;;;9.21;100.00;99635.13;214914;1309;22484;-72
2022/10/28 04:33:42;;;;;;;27.50;16.20;;;;;;;9.21;100.00;99635.70;214946;1309;24402;-72
2022/10/28 04:38:44;;;;;;;30.80;18.10;;;;;;;9.20;100.00;99622.86;214791;1301;22947;-72
2022/10/28 04:43:46;;;;;;;24.60;15.60;;;;;;;9.19;100.00;99613.29;214604;1295;22532;-72
2022/10/28 04:48:48;;;;;;;24.30;14.00;;;;;;;9.22;100.00;99606.47;214674;1309;22460;-72
2022/10/28 04:53:50;;;;;;;25.80;14.20;;;;;;;9.23;100.00;99595.83;214589;1310;22599;-71
2022/10/28 04:58:52;;;;;;;22.50;13.70;;;;;;;9.28;100.00;99589.92;214558;1310;22483;-71
2022/10/28 05:03:53;;;;;;;23.10;13.00;;;;;;;9.34;100.00;99582.30;214475;1304;22701;-72
2022/10/28 05:08:55;;;;;;;26.20;15.70;;;;;;;9.39;100.00;99584.10;214608;1310;22524;-72
2022/10/28 05:13:57;;;;;;;22.40;13.10;;;;;;;9.43;100.00;99587.11;214628;1301;22468;-71
2022/10/28 05:18:59;;;;;;;26.90;15.60;;;;;;;9.46;100.00;99597.27;214798;1309;25373;-72
2022/10/28 05:24:01;;;;;;;25.30;14.70;;;;;;;9.43;100.00;99599.30;214662;1309;22596;-72
2022/10/28 05:29:03;;;;;;;24.90;15.00;;;;;;;9.36;100.00;99595.14;214540;1310;25300;-72
2022/10/28 05:34:05;;;;;;;31.20;18.00;;;;;;;9.30;100.00;99588.16;214677;1279;25184;-72
2022/10/28 05:39:07;;;;;;;29.50;18.00;;;;;;;9.24;100.00;99587.77;214959;1309;25333;-70
2022/10/28 05:44:08;;;;;;;26.20;14.70;;;;;;;9.21;100.00;99596.73;214795;1294;22463;-71
2022/10/28 05:49:10;;;;;;;20.90;12.70;;;;;;;9.20;100.00;99597.14;215019;1285;22930;-70
2022/10/28 05:54:12;;;;;;;22.40;14.60;;;;;;;9.23;100.00;99595.56;214771;1288;24291;-71
2022/10/28 05:59:14;;;;;;;21.90;13.00;;;;;;;9.29;100.00;99597.04;215037;1278;22473;-72
2022/10/28 06:04:25;;;;;;;33.40;18.20;;;;;;;9.36;100.00;99598.58;215317;1283;22679;-72
2022/10/28 06:09:31;;;;;;;20.00;12.30;;;;;;;9.53;100.00;99600.41;215371;1281;24408;-70
2022/10/28 06:14:33;;;;;;;25.00;11.90;;;;;;;9.76;100.00;99598.05;215407;1280;22634;-71
2022/10/28 06:19:35;;;;;;;13.60;9.30;;;;;;;9.90;100.00;99602.48;215444;1278;22634;-71
2022/10/28 06:24:36;;;;;;;15.80;9.90;;;;;;;10.07;100.00;99604.63;220553;1284;107430;-73
2022/10/28 06:29:38;;;;;;;16.50;10.50;;;;;;;10.25;100.00;99598.59;215694;1278;100437;-70
2022/10/28 06:34:40;;;;;;;14.50;10.00;;;;;;;10.44;100.00;99604.05;215312;1277;100375;-71
2022/10/28 06:39:43;;;;;;;13.80;9.10;;;;;;;10.60;100.00;99608.40;215279;1285;100328;-74
2022/10/28 06:44:45;;;;;;;13.60;8.80;;;;;;;10.76;100.00;99617.35;215175;1283;100703;-75
2022/10/28 06:49:47;;;;;;;14.00;8.50;;;;;;;10.94;100.00;99627.09;215204;1285;24356;-72
2022/10/28 06:54:49;;;;;;;11.40;7.60;;;;;;;11.19;100.00;99630.17;215303;1281;99774;-72
2022/10/28 06:59:50;;;;;;;13.60;8.40;;;;;;;11.47;100.00;99634.45;215321;1285;99732;-72
2022/10/28 07:04:52;;;;;;;14.30;8.20;;;;;;;11.64;100.00;99642.98;215676;1283;99934;-72
2022/10/28 07:09:54;;;;;;;10.70;7.40;;;;;;;11.79;100.00;99646.36;215366;1285;99968;-72
2022/10/28 07:14:56;;;;;;;11.60;7.80;;;;;;;11.96;100.00;99642.83;215117;1284;99926;-72
2022/10/28 07:19:58;;;;;;;12.00;7.00;;;;;;;12.09;100.00;99640.60;215165;1283;99926;-72
2022/10/28 07:24:59;;;;;;;9.80;6.60;;;;;;;12.23;100.00;99641.88;215646;1282;101369;-72
2022/10/28 07:30:01;;;;;;;11.60;6.70;;;;;;;12.34;100.00;99642.83;215819;1284;99931;-72
2022/10/28 07:35:04;;;;;;;10.20;7.10;;;;;;;12.45;100.00;99648.02;215118;1288;22952;-72
2022/10/28 07:40:06;;;;;;;11.50;6.10;;;;;;;12.55;100.00;99648.33;215113;1278;99994;-72
2022/10/28 07:45:08;;;;;;;9.80;6.20;;;;;;;12.64;100.00;99645.75;214983;1278;101109;-72
2022/10/28 07:50:11;;;;;;;8.70;5.60;;;;;;;12.73;100.00;99645.52;215264;1284;100013;-72
2022/10/28 07:55:13;;;;;;;10.50;5.90;;;;;;;12.81;100.00;99645.66;215290;1285;99907;-73
2022/10/28 08:00:15;;;;;;;11.30;6.70;;;;;;;12.91;100.00;99643.06;215060;1277;100626;-73
2022/10/28 08:05:17;;;;;;;7.90;6.40;;;;;;;13.00;100.00;99642.01;215337;1284;25253;-72
2022/10/28 08:10:19;;;;;;;9.50;6.40;;;;;;;13.09;100.00;99639.45;215095;1291;25437;-73
2022/10/28 08:15:22;;;;;;;9.90;6.10;;;;;;;13.25;100.00;99636.34;215052;1284;99656;-72
2022/10/28 08:20:24;;;;;;;9.70;6.30;;;;;;;13.40;100.00;99639.48;215111;1284;100271;-73
2022/10/28 08:25:26;;;;;;;12.00;6.70;;;;;;;13.51;100.00;99640.45;215342;1288;100352;-72
2022/10/28 08:30:31;;;;;;;10.20;6.60;;;;;;;13.63;99.83;99640.20;215532;1277;100542;-72
2022/10/28 08:35:51;;;;;;;12.00;7.10;;;;;;;13.76;99.05;99641.23;215277;1294;100052;-72
2022/10/28 08:41:05;;;;;;;11.70;7.40;;;;;;;13.77;97.86;99639.86;215430;1285;24260;-73
2022/10/28 08:46:26;;;;;;;12.90;8.20;;;;;;;13.86;98.21;99644.56;215060;1309;99620;-72
2022/10/28 08:51:52;;;;;;;10.30;6.70;;;;;;;13.84;97.54;99649.85;215127;1309;99556;-72
2022/10/28 08:56:58;;;;;;;10.60;7.20;;;;;;;13.82;97.14;99647.52;215040;1285;99393;-72
2022/10/28 09:02:18;;;;;;;10.90;7.20;;;;;;;13.83;97.43;99645.92;215126;1284;99841;-74
2022/10/28 09:07:22;;;;;;;10.70;6.40;;;;;;;13.88;97.22;99640.06;215148;1287;99820;-73
2022/10/28 09:12:45;;;;;;;12.00;7.30;;;;;;;13.95;96.92;99638.36;214988;1288;99961;-73
2022/10/28 09:18:03;;;;;;;11.10;7.70;;;;;;;14.02;96.85;99633.58;215222;1285;99666;-71
2022/10/28 09:23:20;;;;;;;9.80;6.00;;;;;;;14.10;96.29;99629.33;215245;1278;25373;-72
2022/10/28 09:28:28;;;;;;;9.60;5.60;;;;;;;14.17;95.44;99637.58;215995;1287;22570;-71
2022/10/28 09:33:45;;;;;;;7.40;5.60;;;;;;;14.28;95.19;99642.34;215126;1301;99480;-72
2022/10/28 09:38:50;;;;;;;7.80;5.70;;;;;;;14.40;94.96;99634.30;215495;1279;99351;-73
2022/10/28 09:44:22;;;;;;;6.60;5.20;;;;;;;14.49;94.38;99641.27;215417;1277;100077;-72
2022/10/28 09:49:29;;;;;;;10.50;5.10;;;;;;;14.55;93.34;99637.77;215450;1285;100937;-72
2022/10/28 09:54:38;;;;;;;5.80;5.00;;;;;;;14.64;93.39;99632.55;215221;1278;100398;-73
2022/10/28 09:59:40;;;;;;;6.10;5.30;;;;;;;14.71;93.22;99630.75;215171;1296;100347;-72
2022/10/28 10:04:42;;;;;;;6.30;4.70;;;;;;;14.84;92.99;99630.96;215152;1292;22538;-72
2022/10/28 10:09:44;;;;;;;6.40;4.70;;;;;;;14.95;92.20;99633.59;214925;1310;99563;-72
2022/10/28 10:14:49;;;;;;;6.60;4.80;;;;;;;15.02;91.57;99642.38;214820;1310;99501;-72
2022/10/28 10:19:59;;;;;;;5.60;4.40;;;;;;;15.11;91.34;99638.58;215088;1285;99682;-71
2022/10/28 10:25:16;;;;;;;6.10;4.30;;;;;;;15.13;90.50;99639.29;215630;1284;99739;-72
2022/10/28 10:30:23;;;;;;;7.00;5.30;;;;;;;15.14;90.29;99640.40;215638;1309;99940;-72
2022/10/28 10:35:29;;;;;;;6.40;4.50;;;;;;;15.25;90.60;99647.60;215021;1281;99644;-72
2022/10/28 10:40:40;;;;;;;6.10;4.60;;;;;;;15.37;90.15;99641.39;215098;1280;22513;-72
2022/10/28 10:46:00;;;;;;;6.00;4.50;;;;;;;15.48;89.68;99636.48;215231;1309;99324;-71
2022/10/28 10:51:23;;;;;;;4.30;3.70;;;;;;;15.61;89.10;99631.46;214999;1292;99666;-72
2022/10/28 10:56:29;;;;;;;5.60;4.40;;;;;;;15.92;89.23;99634.77;215403;1309;99582;-72
2022/10/28 11:01:38;;;;;;;6.30;3.70;;;;;;;15.95;87.95;99635.23;214969;1278;99583;-72
2022/10/28 11:06:43;;;;;;;5.20;4.40;;;;;;;15.97;87.39;99634.21;215280;1285;100100;-73
2022/10/28 11:11:44;;;;;;;5.30;3.70;;;;;;;16.14;88.31;99632.65;215354;1309;99799;-72
2022/10/28 11:16:58;;;;;;;4.20;3.40;;;;;;;16.44;87.63;99623.77;215073;1281;22506;-73
2022/10/28 11:22:05;;;;;;;4.20;3.40;;;;;;;16.62;87.18;99621.93;215330;1287;99876;-72
2022/10/28 11:27:30;;;;;;;5.00;3.50;;;;;;;16.73;86.07;99615.01;215902;1279;99814;-71
2022/10/28 11:32:57;;;;;;;6.10;4.20;;;;;;;16.76;85.61;99610.50;215607;1279;99926;-71
2022/10/28 11:38:38;;;;;;;5.30;3.50;;;;;;;16.80;85.04;99614.30;215285;1285;99522;-71
2022/10/28 11:43:57;;;;;;;4.90;3.80;;;;;;;16.85;85.05;99601.13;215248;1285;99692;-73
2022/10/28 11:49:37;;;;;;;6.10;4.40;;;;;;;17.13;84.88;99597.66;215231;1285;99737;-72
2022/10/28 11:55:17;;;;;;;5.70;3.70;;;;;;;17.36;83.98;99591.57;215288;1277;101121;-71
2022/10/28 12:00:28;;;;;;;4.90;3.70;;;;;;;17.59;83.67;99584.44;215474;1277;100221;-73
2022/10/28 12:05:52;;;;;;;5.00;3.50;;;;;;;17.61;82.32;99580.20;215455;1285;100494;-71
2022/10/28 12:11:09;;;;;;;4.80;3.30;;;;;;;17.44;81.53;99579.88;215249;1277;22509;-71
2022/10/28 12:16:41;;;;;;;4.50;3.40;;;;;;;17.24;81.93;99587.74;215430;1295;99636;-71
2022/10/28 12:21:55;;;;;;;7.60;3.40;;;;;;;17.15;82.74;99577.64;215490;1284;99373;-73
2022/10/28 12:26:59;;;;;;;4.30;3.90;;;;;;;17.13;83.10;99578.62;215853;1284;99520;-72
2022/10/28 12:32:06;;;;;;;6.50;3.80;;;;;;;17.13;83.14;99576.08;215431;1285;99616;-73
2022/10/28 12:37:20;;;;;;;5.30;3.70;;;;;;;17.05;82.30;99574.92;215236;1277;101320;-71
2022/10/28 12:42:37;;;;;;;6.50;4.20;;;;;;;16.91;81.97;99577.79;215458;1285;99871;-72
2022/10/28 12:47:47;;;;;;;6.60;4.30;;;;;;;16.77;81.89;99568.75;215421;1278;99972;-71
2022/10/28 12:53:00;;;;;;;7.10;4.20;;;;;;;16.68;82.17;99561.73;215203;1278;25288;-71
2022/10/28 12:58:30;;;;;;;6.50;3.80;;;;;;;16.66;82.70;99564.48;215316;1278;99669;-73
2022/10/28 13:03:32;;;;;;;5.50;3.70;;;;;;;16.68;82.85;99560.55;215042;1285;99383;-71
2022/10/28 13:08:53;;;;;;;5.50;3.80;;;;;;;16.75;82.73;99559.44;214996;1277;99973;-72
2022/10/28 13:14:02;;;;;;;4.10;3.40;;;;;;;16.81;82.74;99549.06;214838;1301;99810;-72
2022/10/28 13:19:13;;;;;;;;;;;;;;;16.81;82.80;99546.30;214981;1280;99888;-72
2022/10/28 13:24:48;;;;;;;5.70;3.60;;;;;;;16.79;82.95;99541.44;215001;1284;86232;-72
2022/10/28 13:29:57;;;;;;;4.20;3.20;;;;;;;16.81;83.31;99539.55;215571;1294;99983;-72
2022/10/28 13:35:00;;;;;;;7.60;3.60;;;;;;;16.76;82.57;99539.52;214792;1278;22500;-71
2022/10/28 13:40:01;;;;;;;6.70;3.30;;;;;;;16.67;82.75;99539.73;215181;1278;99558;-72
2022/10/28 13:45:03;;;;;;;4.30;3.20;;;;;;;16.63;82.97;99540.50;215014;1278;99350;-71
2022/10/28 13:50:06;;;;;;;3.90;2.90;;;;;;;16.59;83.12;99540.02;215112;1278;98941;-73
2022/10/28 13:55:20;;;;;;;5.00;3.70;;;;;;;16.53;83.05;99543.73;215233;1278;99940;-74
2022/10/28 14:00:22;;;;;;;4.60;3.50;;;;;;;16.40;82.72;99539.92;215217;1278;99854;-74
2022/10/28 14:05:44;;;;;;;8.50;4.20;;;;;;;16.24;82.24;99537.65;214981;1280;22525;-74
2022/10/28 14:10:58;;;;;;;5.20;3.80;;;;;;;16.10;82.75;99535.84;214387;1309;184850;-74
2022/10/28 14:16:25;;;;;;;7.30;3.20;;;;;;;15.94;83.04;99533.23;214795;1309;22482;-74
2022/10/28 14:21:44;;;;;;;3.80;2.90;;;;;;;15.71;83.29;99528.36;214752;1309;22516;-74
2022/10/28 14:27:05;;;;;;;7.60;4.40;;;;;;;15.49;83.67;99523.10;214792;1309;24267;-74
2022/10/28 14:32:31;;;;;;;4.80;3.60;;;;;;;15.29;84.18;99522.39;214704;1293;24316;-74
2022/10/28 14:38:11;;;;;;;8.00;3.70;;;;;;;15.17;84.70;99517.39;214659;1309;22499;-73
2022/10/28 14:43:32;;;;;;;4.80;3.50;;;;;;;15.04;85.01;99516.71;214502;1308;22598;-73
2022/10/28 14:48:48;;;;;;;8.40;3.90;;;;;;;14.94;85.36;99521.98;214607;1309;22577;-74
2022/10/28 14:53:56;;;;;;;5.90;3.90;;;;;;;14.83;85.67;99519.60;214660;1305;22572;-74
2022/10/28 14:59:23;;;;;;;6.00;3.90;;;;;;;14.71;85.96;99512.16;214672;1309;25353;-73
2022/10/28 15:04:25;;;;;;;5.40;3.80;;;;;;;14.59;86.32;99510.63;214640;1309;22507;-74
2022/10/28 15:09:30;;;;;;;5.30;3.60;;;;;;;14.47;86.65;99508.66;214625;1309;24194;-74
2022/10/28 15:14:36;;;;;;;8.30;4.70;;;;;;;14.34;86.99;99508.13;214920;1309;23750;-74
2022/10/28 15:19:39;;;;;;;8.30;4.70;;;;;;;14.19;87.56;99507.40;214713;1309;22501;-73
2022/10/28 15:24:41;;;;;;;7.60;5.40;;;;;;;14.02;88.03;99496.78;214755;1309;22457;-75
2022/10/28 15:29:49;;;;;;;10.50;6.40;;;;;;;13.88;88.61;99497.32;214663;1308;22491;-73
2022/10/28 15:34:51;;;;;;;8.80;5.60;;;;;;;13.74;89.07;99494.50;214967;1308;24337;-74
2022/10/28 15:40:11;;;;;;;8.30;5.40;;;;;;;13.64;89.61;99493.90;214530;1309;23216;-73
2022/10/28 15:45:19;;;;;;;8.40;5.20;;;;;;;13.52;89.89;99491.00;214573;1309;22578;-73
2022/10/28 15:50:35;;;;;;;10.50;6.10;;;;;;;13.40;90.10;99493.64;214706;1309;22482;-73
2022/10/28 15:55:43;;;;;;;11.20;6.40;;;;;;;13.28;90.59;99489.71;214637;1309;22656;-73
2022/10/28 16:01:27;;;;;;;10.40;6.90;;;;;;;13.15;91.15;99482.51;214698;1309;24258;-74
2022/10/28 16:06:35;;;;;;;11.00;6.70;;;;;;;13.04;91.65;99485.52;214857;1303;24280;-74
2022/10/28 16:11:43;;;;;;;13.50;8.60;;;;;;;12.95;92.38;99483.64;214784;1308;22474;-73
2022/10/28 16:16:45;;;;;;;11.40;6.70;;;;;;;12.87;92.80;99483.91;214616;1308;25441;-75
2022/10/28 16:21:47;;;;;;;12.70;8.00;;;;;;;12.79;93.64;99485.66;214625;1309;22523;-75
2022/10/28 16:26:48;;;;;;;10.60;7.80;;;;;;;12.72;93.97;99484.76;214632;1309;24548;-73
2022/10/28 16:31:51;;;;;;;11.20;7.80;;;;;;;12.67;94.15;99485.78;214698;1304;22605;-74
2022/10/28 16:36:53;;;;;;;11.10;7.00;;;;;;;12.60;94.46;99488.05;214498;1309;23096;-73
2022/10/28 16:41:56;;;;;;;12.20;8.10;;;;;;;12.54;94.41;99488.00;214677;1309;25389;-73
2022/10/28 16:46:58;;;;;;;14.70;8.40;;;;;;;12.45;94.69;99482.18;214667;1309;22537;-74
2022/10/28 16:52:01;;;;;;;12.80;8.10;;;;;;;12.35;95.00;99482.11;214668;1309;22493;-73
2022/10/28 16:57:03;;;;;;;12.70;8.10;;;;;;;12.29;95.28;99489.73;214670;1309;22504;-75
2022/10/28 17:02:16;;;;;;;15.40;7.90;;;;;;;12.23;95.45;99486.83;214709;1309;22515;-74
2022/10/28 17:07:18;;;;;;;17.20;9.80;;;;;;;12.18;95.81;99490.48;214816;1309;22481;-74
2022/10/28 17:12:23;;;;;;;11.90;8.00;;;;;;;12.12;95.99;99489.60;214674;1309;22439;-71
2022/10/28 17:17:25;;;;;;;14.00;9.10;;;;;;;12.07;96.10;99487.49;214789;1309;22527;-74
2022/10/28 17:22:26;;;;;;;38.60;23.60;;;;;;;12.01;96.44;99487.05;214714;1309;22477;-74
2022/10/28 17:27:28;;;;;;;14.60;9.70;;;;;;;12.04;97.44;99486.01;214803;1309;22540;-74
2022/10/28 17:32:30;;;;;;;13.90;8.40;;;;;;;12.00;97.39;99488.52;214819;1309;22684;-74
2022/10/28 17:37:32;;;;;;;16.80;9.70;;;;;;;11.96;97.32;99486.11;214683;1309;25462;-73
2022/10/28 17:42:34;;;;;;;13.30;9.30;;;;;;;11.94;97.32;99485.71;214684;1309;25432;-74
2022/10/28 17:47:36;;;;;;;15.70;9.20;;;;;;;11.91;97.82;99480.70;214635;1309;22610;-73
2022/10/28 17:59:14;;;;;;;16.70;10.10;;;;;;;11.81;98.84;99480.23;214697;1309;22562;-74
2022/10/28 18:04:16;;;;;;;15.60;10.30;;;;;;;11.80;99.04;99476.54;214761;1309;25432;-73
2022/10/28 18:09:18;;;;;;;17.40;10.60;;;;;;;11.76;99.12;99473.77;214742;1309;25303;-73
2022/10/28 18:14:20;;;;;;;16.60;10.00;;;;;;;11.75;99.58;99468.15;214790;1293;23940;-73
2022/10/28 18:19:21;;;;;;;14.80;10.20;;;;;;;11.72;99.33;99470.27;214681;1309;22480;-74
2022/10/28 18:24:23;;;;;;;16.90;9.90;;;;;;;11.70;99.30;99467.54;214630;1309;25391;-73
2022/10/28 18:29:27;;;;;;;15.60;9.80;;;;;;;11.70;99.57;99470.11;214613;1309;24411;-74
2022/10/28 18:34:29;;;;;;;12.80;9.00;;;;;;;11.71;99.44;99464.69;214744;1309;23752;-73
2022/10/28 18:39:31;;;;;;;14.10;8.60;;;;;;;11.70;99.48;99461.09;214785;1309;25464;-75
2022/10/28 18:44:33;;;;;;;15.60;8.50;;;;;;;11.70;99.35;99453.64;214732;1309;22484;-75
2022/10/28 18:49:34;;;;;;;11.60;8.00;;;;;;;11.70;99.23;99455.20;214492;1309;22526;-73
2022/10/28 18:54:36;;;;;;;13.80;8.40;;;;;;;11.69;99.41;99457.34;214705;1309;24452;-73
2022/10/28 18:59:38;;;;;;;13.20;8.60;;;;;;;11.67;99.22;99456.98;214714;1309;24306;-73
2022/10/28 19:05:00;;;;;;;14.00;8.50;;;;;;;11.64;99.16;99458.08;214676;1302;24189;-74
2022/10/28 19:10:03;;;;;;;15.20;8.50;;;;;;;11.62;99.37;99468.66;214709;1309;22471;-74
2022/10/28 19:15:06;;;;;;;12.80;8.80;;;;;;;11.61;99.59;99468.02;214779;1309;23200;-74
2022/10/28 19:20:08;;;;;;;11.40;8.10;;;;;;;11.58;99.52;99467.13;214738;1309;22475;-74
2022/10/28 19:25:10;;;;;;;13.10;8.30;;;;;;;11.54;99.66;99468.92;214564;1309;22517;-73
2022/10/28 19:30:12;;;;;;;13.50;9.50;;;;;;;11.50;99.67;99471.32;214635;1309;22659;-73
2022/10/28 19:35:14;;;;;;;15.60;10.40;;;;;;;11.44;99.48;99472.52;214672;1304;22599;-74
2022/10/28 19:40:16;;;;;;;13.80;9.50;;;;;;;11.38;99.91;99476.14;214717;1309;25226;-75
2022/10/28 19:45:18;;;;;;;17.00;9.80;;;;;;;11.33;99.82;99483.42;214745;1309;22593;-74
2022/10/28 19:50:20;;;;;;;15.40;9.30;;;;;;;11.27;99.93;99483.28;214688;1309;25224;-73
2022/10/28 19:55:22;;;;;;;15.20;9.90;;;;;;;11.22;100.00;99479.45;214568;1309;22558;-74
2022/10/28 20:00:23;;;;;;;16.50;10.60;;;;;;;11.17;100.00;99480.86;214701;1309;22480;-73
2022/10/28 20:05:25;;;;;;;14.70;9.60;;;;;;;11.13;100.00;99479.59;214672;1303;22435;-73
2022/10/28 20:10:27;;;;;;;17.00;10.70;;;;;;;11.08;100.00;99479.65;214463;1309;24358;-74
2022/10/28 20:15:29;;;;;;;15.30;10.60;;;;;;;11.04;100.00;99475.92;214703;1308;22523;-74
2022/10/28 20:20:33;;;;;;;15.50;9.90;;;;;;;11.00;100.00;99466.89;214515;1310;22496;-73
2022/10/28 20:25:35;;;;;;;18.00;12.00;;;;;;;10.97;100.00;99463.98;214862;1309;24542;-74
2022/10/28 20:30:37;;;;;;;20.00;11.10;;;;;;;10.96;100.00;99462.06;214548;1309;25357;-73
2022/10/28 20:35:38;;;;;;;18.60;11.20;;;;;;;10.93;100.00;99461.59;214488;1309;23332;-73
2022/10/28 20:40:40;;;;;;;19.30;12.50;;;;;;;10.91;100.00;99459.46;214673;1308;22604;-73
2022/10/28 20:45:42;;;;;;;17.60;10.90;;;;;;;10.90;100.00;99461.17;214487;1309;22526;-73
2022/10/28 20:50:49;;;;;;;17.30;10.90;;;;;;;10.88;100.00;99459.73;214697;1309;22520;-73
2022/10/28 20:55:53;;;;;;;17.70;11.00;;;;;;;10.85;100.00;99453.57;214790;1309;23200;-73
2022/10/28 21:01:02;;;;;;;18.30;12.30;;;;;;;10.84;100.00;99452.71;214504;1309;22467;-74
2022/10/28 21:06:04;;;;;;;18.30;12.20;;;;;;;10.80;100.00;99460.56;214567;1309;22736;-73
2022/10/28 21:11:09;;;;;;;16.80;11.40;;;;;;;10.77;100.00;99466.09;214548;1309;25233;-73
2022/10/28 21:16:14;;;;;;;17.60;11.20;;;;;;;10.75;100.00;99462.66;214527;1309;22645;-73
2022/10/28 21:21:17;;;;;;;19.30;12.50;;;;;;;10.73;100.00;99458.00;214673;1309;22475;-75
2022/10/28 21:26:19;;;;;;;22.20;13.50;;;;;;;10.71;100.00;99454.42;214718;1309;22462;-74
2022/10/28 21:31:22;;;;;;;19.20;12.70;;;;;;;10.71;100.00;99452.55;214627;1309;22630;-73
2022/10/28 21:36:24;;;;;;;19.50;11.60;;;;;;;10.70;100.00;99441.04;214557;1309;22471;-74
2022/10/28 21:41:25;;;;;;;18.10;12.10;;;;;;;10.69;100.00;99439.11;214679;1309;24253;-74
2022/10/28 21:46:27;;;;;;;21.10;11.90;;;;;;;10.67;100.00;99445.75;214522;1312;24340;-74
2022/10/28 21:51:29;;;;;;;20.00;13.10;;;;;;;10.64;100.00;99441.20;214692;1298;22595;-73
2022/10/28 21:56:31;;;;;;;21.40;12.70;;;;;;;10.62;100.00;99439.60;214578;1309;22483;-73
2022/10/28 22:01:34;;;;;;;18.30;11.50;;;;;;;10.60;100.00;99434.09;214693;1285;24253;-74
2022/10/28 22:06:36;;;;;;;19.60;10.60;;;;;;;10.56;100.00;99428.79;214727;1309;22491;-74
2022/10/28 22:11:39;;;;;;;19.60;11.40;;;;;;;10.54;100.00;99425.54;214732;1308;22475;-75
2022/10/28 22:16:41;;;;;;;17.30;10.20;;;;;;;10.52;100.00;99427.09;214516;1304;22526;-73
2022/10/28 22:21:43;;;;;;;18.30;10.50;;;;;;;10.52;100.00;99425.39;214769;1309;22476;-73
2022/10/28 22:26:45;;;;;;;17.60;10.20;;;;;;;10.52;100.00;99424.95;214498;1309;22650;-73
2022/10/28 22:31:47;;;;;;;15.30;9.30;;;;;;;10.55;100.00;99423.18;214578;1309;24871;-73
2022/10/28 22:36:49;;;;;;;16.50;9.50;;;;;;;10.55;100.00;99427.20;214684;1309;25215;-74
2022/10/28 22:41:51;;;;;;;18.00;9.90;;;;;;;10.55;100.00;99428.86;214678;1309;24332;-73
2022/10/28 22:46:53;;;;;;;15.90;9.00;;;;;;;10.55;100.00;99408.55;214691;1309;22483;-73
2022/10/28 22:51:54;;;;;;;15.70;9.30;;;;;;;10.54;100.00;99406.63;214633;1309;25445;-73
2022/10/28 22:56:56;;;;;;;15.90;9.30;;;;;;;10.54;100.00;99406.09;214721;1309;22522;-74
2022/10/28 23:01:58;;;;;;;12.70;9.50;;;;;;;10.54;100.00;99405.29;214656;1310;22529;-74
2022/10/28 23:07:00;;;;;;;17.10;9.50;;;;;;;10.55;100.00;99396.92;214654;1309;23740;-74
2022/10/28 23:12:06;;;;;;;18.90;10.00;;;;;;;10.55;100.00;99398.00;214706;1306;22485;-73
2022/10/28 23:17:08;;;;;;;16.30;10.10;;;;;;;10.54;100.00;99391.67;214653;1307;22463;-74
2022/10/28 23:22:10;;;;;;;20.50;10.80;;;;;;;10.53;100.00;99389.25;214578;1309;22728;-73
2022/10/28 23:27:12;;;;;;;15.20;8.80;;;;;;;10.53;100.00;99389.47;214716;1309;24260;-73
2022/10/28 23:32:15;;;;;;;15.60;9.60;;;;;;;10.53;100.00;99383.26;214462;1309;22496;-72